FFT4108 KLAS-KBUR
Flight info
| Callsign | FFT4108 |
|---|---|
| Flight time | N/A |
| Altitude | 18000 |
| Route | RADYR2 SLVRR KREME JANNY5 |
| Aircraft | A20N/M-SDE2E3FGHIRWXY/LB1 |
Departure
| Time | 2026-05-03 23:02 |
|---|---|
| Airport | Harry Reid International Airport (KLAS) |
Arrival
| Time | N/A |
|---|---|
| Airport | Hollywood Burbank/Bob Hope Airport (KBUR) |
| Time | Latitude | Longitude | Altitude | Speed | Heading |
|---|---|---|---|---|---|
| 2026-05-03 22:51 | 36.07992 | -115.13533 | 2086 ft | 0 kts | 360° |
| 2026-05-03 22:51 | 36.07979 | -115.13533 | 2086 ft | 2 kts | 0° |
| 2026-05-03 22:52 | 36.07962 | -115.13534 | 2086 ft | 2 kts | 1° |
| 2026-05-03 22:52 | 36.07946 | -115.13534 | 2087 ft | 2 kts | 3° |
| 2026-05-03 22:52 | 36.07929 | -115.13536 | 2087 ft | 2 kts | 8° |
| 2026-05-03 22:52 | 36.07913 | -115.13541 | 2087 ft | 2 kts | 51° |
| 2026-05-03 22:53 | 36.07909 | -115.13553 | 2087 ft | 0 kts | 88° |
| 2026-05-03 22:54 | 36.07910 | -115.13533 | 2087 ft | 6 kts | 88° |
| 2026-05-03 22:54 | 36.07910 | -115.13525 | 2086 ft | 0 kts | 88° |
| 2026-05-03 22:54 | 36.07910 | -115.13523 | 2086 ft | 2 kts | 89° |
| 2026-05-03 22:55 | 36.07911 | -115.13479 | 2085 ft | 1 kts | 88° |
| 2026-05-03 22:55 | 36.07910 | -115.13458 | 2084 ft | 6 kts | 92° |
| 2026-05-03 22:55 | 36.07890 | -115.13389 | 2081 ft | 11 kts | 141° |
| 2026-05-03 22:55 | 36.07828 | -115.13336 | 2079 ft | 13 kts | 102° |
| 2026-05-03 22:56 | 36.07806 | -115.13302 | 2077 ft | 4 kts | 148° |
| 2026-05-03 22:56 | 36.07757 | -115.13244 | 2073 ft | 15 kts | 102° |
| 2026-05-03 22:56 | 36.07755 | -115.13089 | 2064 ft | 20 kts | 91° |
| 2026-05-03 22:56 | 36.07754 | -115.12905 | 2056 ft | 22 kts | 91° |
| 2026-05-03 22:57 | 36.07754 | -115.12709 | 2045 ft | 24 kts | 91° |
| 2026-05-03 22:57 | 36.07755 | -115.12521 | 2039 ft | 22 kts | 90° |
| 2026-05-03 22:57 | 36.07755 | -115.12336 | 2033 ft | 20 kts | 88° |
| 2026-05-03 22:57 | 36.07755 | -115.12193 | 2028 ft | 13 kts | 90° |
| 2026-05-03 22:58 | 36.07734 | -115.12137 | 2032 ft | 0 kts | 142° |
| 2026-05-03 23:01 | 36.07723 | -115.12130 | 2026 ft | 8 kts | 158° |
| 2026-05-03 23:01 | 36.07654 | -115.12145 | 2034 ft | 13 kts | 225° |
| 2026-05-03 23:01 | 36.07643 | -115.12194 | 2030 ft | 0 kts | 268° |
| 2026-05-03 23:02 | 36.07642 | -115.12545 | 2042 ft | 85 kts | 269° |
| 2026-05-03 23:02 | 36.07643 | -115.13596 | 2091 ft | 155 kts | 269° |
| 2026-05-03 23:02 | 36.07659 | -115.15079 | 2544 ft | 185 kts | 262° |
| 2026-05-03 23:02 | 36.07620 | -115.16733 | 3363 ft | 201 kts | 260° |
| 2026-05-03 23:03 | 36.07549 | -115.18533 | 4157 ft | 220 kts | 260° |
| 2026-05-03 23:03 | 36.07461 | -115.20489 | 4746 ft | 238 kts | 260° |
| 2026-05-03 23:03 | 36.07227 | -115.22567 | 5428 ft | 247 kts | 256° |
| 2026-05-03 23:03 | 36.06849 | -115.24600 | 6401 ft | 241 kts | 240° |
| 2026-05-03 23:04 | 36.05831 | -115.26213 | 7237 ft | 239 kts | 214° |
| 2026-05-03 23:04 | 36.04354 | -115.27121 | 7688 ft | 247 kts | 200° |
| 2026-05-03 23:04 | 36.02646 | -115.27882 | 7905 ft | 268 kts | 199° |
| 2026-05-03 23:04 | 36.00872 | -115.28659 | 8002 ft | 269 kts | 199° |
| 2026-05-03 23:05 | 35.99131 | -115.29390 | 7995 ft | 265 kts | 194° |
| 2026-05-03 23:05 | 35.97309 | -115.29858 | 8077 ft | 267 kts | 191° |
| 2026-05-03 23:05 | 35.95483 | -115.30294 | 8691 ft | 267 kts | 191° |
| 2026-05-03 23:05 | 35.93645 | -115.30745 | 9701 ft | 267 kts | 191° |
| 2026-05-03 23:06 | 35.91821 | -115.31195 | 10537 ft | 276 kts | 192° |
| 2026-05-03 23:06 | 35.89854 | -115.31682 | 10926 ft | 299 kts | 191° |
| 2026-05-03 23:06 | 35.87753 | -115.32200 | 11330 ft | 318 kts | 191° |
| 2026-05-03 23:06 | 35.85548 | -115.32743 | 12153 ft | 323 kts | 192° |
| 2026-05-03 23:07 | 35.83344 | -115.33286 | 13062 ft | 327 kts | 191° |
| 2026-05-03 23:07 | 35.81094 | -115.33838 | 13897 ft | 330 kts | 191° |
| 2026-05-03 23:07 | 35.78842 | -115.34390 | 14649 ft | 335 kts | 192° |
| 2026-05-03 23:07 | 35.76535 | -115.34954 | 15403 ft | 339 kts | 192° |
| 2026-05-03 23:08 | 35.74192 | -115.35527 | 16155 ft | 344 kts | 192° |
| 2026-05-03 23:08 | 35.71852 | -115.36099 | 16895 ft | 348 kts | 192° |
| 2026-05-03 23:08 | 35.69445 | -115.36687 | 17528 ft | 354 kts | 192° |
| 2026-05-03 23:08 | 35.67034 | -115.37277 | 17748 ft | 357 kts | 192° |
| 2026-05-03 23:09 | 35.64586 | -115.37876 | 17822 ft | 357 kts | 192° |
| 2026-05-03 23:09 | 35.62222 | -115.38724 | 17825 ft | 356 kts | 204° |
| 2026-05-03 23:09 | 35.60068 | -115.40233 | 17817 ft | 355 kts | 217° |
| 2026-05-03 23:09 | 35.58282 | -115.42277 | 17826 ft | 354 kts | 227° |
| 2026-05-03 23:10 | 35.56629 | -115.44540 | 17817 ft | 356 kts | 227° |
| 2026-05-03 23:10 | 35.54957 | -115.46815 | 17819 ft | 355 kts | 227° |
| 2026-05-03 23:10 | 35.53320 | -115.49031 | 17821 ft | 354 kts | 227° |
| 2026-05-03 23:10 | 35.51664 | -115.51270 | 17819 ft | 354 kts | 226° |
| 2026-05-03 23:11 | 35.50002 | -115.53511 | 17817 ft | 352 kts | 227° |
| 2026-05-03 23:11 | 35.48346 | -115.55744 | 17819 ft | 353 kts | 226° |
| 2026-05-03 23:11 | 35.46699 | -115.57963 | 17816 ft | 356 kts | 226° |
| 2026-05-03 23:11 | 35.45023 | -115.60218 | 17808 ft | 355 kts | 226° |
| 2026-05-03 23:12 | 35.43361 | -115.62456 | 17807 ft | 352 kts | 226° |
| 2026-05-03 23:12 | 35.41729 | -115.64652 | 17807 ft | 351 kts | 226° |
| 2026-05-03 23:12 | 35.40073 | -115.66878 | 17806 ft | 352 kts | 226° |
| 2026-05-03 23:12 | 35.38416 | -115.69104 | 17799 ft | 352 kts | 226° |
| 2026-05-03 23:13 | 35.36763 | -115.71324 | 17797 ft | 352 kts | 226° |
| 2026-05-03 23:13 | 35.35121 | -115.73526 | 17792 ft | 353 kts | 226° |
| 2026-05-03 23:13 | 35.33362 | -115.75641 | 17791 ft | 352 kts | 221° |
| 2026-05-03 23:13 | 35.31561 | -115.77647 | 17788 ft | 351 kts | 221° |
| 2026-05-03 23:14 | 35.29754 | -115.79670 | 17782 ft | 351 kts | 221° |
| 2026-05-03 23:14 | 35.27968 | -115.81669 | 17779 ft | 353 kts | 221° |
| 2026-05-03 23:14 | 35.26146 | -115.83709 | 17776 ft | 354 kts | 221° |
| 2026-05-03 23:14 | 35.24316 | -115.85756 | 17774 ft | 354 kts | 221° |
| 2026-05-03 23:15 | 35.22513 | -115.87771 | 17768 ft | 354 kts | 221° |
| 2026-05-03 23:15 | 35.20700 | -115.89796 | 17766 ft | 354 kts | 221° |
| 2026-05-03 23:15 | 35.18874 | -115.91835 | 17760 ft | 354 kts | 221° |
| 2026-05-03 23:15 | 35.17059 | -115.93859 | 17759 ft | 354 kts | 221° |
| 2026-05-03 23:16 | 35.15239 | -115.95889 | 17759 ft | 353 kts | 221° |
| 2026-05-03 23:16 | 35.13413 | -115.97923 | 17759 ft | 353 kts | 221° |
| 2026-05-03 23:16 | 35.11593 | -115.99949 | 17756 ft | 353 kts | 221° |
| 2026-05-03 23:16 | 35.09789 | -116.01956 | 17753 ft | 354 kts | 221° |
| 2026-05-03 23:17 | 35.07962 | -116.03989 | 17750 ft | 354 kts | 221° |
| 2026-05-03 23:17 | 35.06155 | -116.05997 | 17747 ft | 353 kts | 221° |
| 2026-05-03 23:17 | 35.04332 | -116.08021 | 17751 ft | 353 kts | 221° |
| 2026-05-03 23:17 | 35.02529 | -116.10023 | 17751 ft | 353 kts | 221° |
| 2026-05-03 23:18 | 35.00697 | -116.12054 | 17727 ft | 353 kts | 221° |
| 2026-05-03 23:18 | 34.98876 | -116.14073 | 17735 ft | 352 kts | 221° |
| 2026-05-03 23:18 | 34.97081 | -116.16061 | 17735 ft | 352 kts | 221° |
| 2026-05-03 23:18 | 34.95260 | -116.18078 | 17745 ft | 353 kts | 221° |
| 2026-05-03 23:19 | 34.93513 | -116.20151 | 17744 ft | 353 kts | 229° |
| 2026-05-03 23:19 | 34.92150 | -116.22656 | 17746 ft | 355 kts | 242° |
| 2026-05-03 23:19 | 34.91308 | -116.25512 | 17737 ft | 359 kts | 255° |
| 2026-05-03 23:19 | 34.90846 | -116.28487 | 17733 ft | 360 kts | 256° |
| 2026-05-03 23:20 | 34.90389 | -116.31475 | 17734 ft | 362 kts | 256° |
| 2026-05-03 23:20 | 34.89922 | -116.34492 | 17748 ft | 361 kts | 256° |
| 2026-05-03 23:20 | 34.89455 | -116.37493 | 17744 ft | 358 kts | 256° |
| 2026-05-03 23:20 | 34.88982 | -116.40494 | 17765 ft | 362 kts | 256° |
| 2026-05-03 23:21 | 34.88513 | -116.43477 | 17759 ft | 360 kts | 256° |
| 2026-05-03 23:21 | 34.88042 | -116.46468 | 17769 ft | 358 kts | 256° |
| 2026-05-03 23:21 | 34.87575 | -116.49429 | 17780 ft | 359 kts | 256° |
| 2026-05-03 23:21 | 34.87101 | -116.52425 | 17778 ft | 358 kts | 256° |
| 2026-05-03 23:22 | 34.86156 | -116.58388 | 17792 ft | 357 kts | 256° |
| 2026-05-03 23:22 | 34.85687 | -116.61336 | 17796 ft | 357 kts | 256° |
| 2026-05-03 23:22 | 34.85214 | -116.64310 | 17802 ft | 356 kts | 256° |
| 2026-05-03 23:23 | 34.84741 | -116.67276 | 17802 ft | 356 kts | 256° |
| 2026-05-03 23:23 | 34.84274 | -116.70201 | 17801 ft | 355 kts | 256° |
| 2026-05-03 23:23 | 34.83800 | -116.73165 | 17808 ft | 355 kts | 256° |
| 2026-05-03 23:23 | 34.83328 | -116.76115 | 17810 ft | 355 kts | 256° |
| 2026-05-03 23:24 | 34.82855 | -116.79058 | 17803 ft | 354 kts | 256° |
| 2026-05-03 23:24 | 34.82380 | -116.82010 | 17796 ft | 354 kts | 256° |
| 2026-05-03 23:24 | 34.81912 | -116.84916 | 17804 ft | 353 kts | 256° |
| 2026-05-03 23:24 | 34.81437 | -116.87861 | 17776 ft | 351 kts | 256° |
| 2026-05-03 23:25 | 34.80972 | -116.90745 | 17628 ft | 351 kts | 256° |
| 2026-05-03 23:25 | 34.80498 | -116.93670 | 17411 ft | 353 kts | 256° |
| 2026-05-03 23:25 | 34.80023 | -116.96608 | 17206 ft | 352 kts | 256° |
| 2026-05-03 23:25 | 34.79548 | -116.99528 | 17003 ft | 350 kts | 256° |